createdAt,value
2023-10-04T00:02:12.068Z,73.76
2023-10-04T00:04:40.274Z,74.09
2023-10-04T00:07:08.256Z,74.30
2023-10-04T00:09:36.175Z,74.63
2023-10-04T00:12:03.289Z,74.52
2023-10-04T00:14:30.000Z,74.36
2023-10-04T00:16:56.614Z,74.64
2023-10-04T00:19:23.147Z,74.39
2023-10-04T00:21:49.709Z,75.11
2023-10-04T00:24:16.354Z,75.26
2023-10-04T00:26:46.544Z,75.99
2023-10-04T00:29:13.145Z,76.35
2023-10-04T00:31:39.713Z,75.95
2023-10-04T00:34:09.731Z,76.26
2023-10-04T00:36:36.509Z,76.99
2023-10-04T00:39:04.462Z,76.33
2023-10-04T00:41:31.332Z,75.95
2023-10-04T00:43:59.841Z,76.12
2023-10-04T00:46:26.986Z,75.93
2023-10-04T00:48:57.359Z,75.95
2023-10-04T00:51:24.456Z,76.63
2023-10-04T00:53:51.695Z,77.12
2023-10-04T00:56:18.289Z,77.16
2023-10-04T00:58:46.945Z,76.10
2023-10-04T01:01:15.519Z,76.24
2023-10-04T01:03:42.650Z,76.68
2023-10-04T01:06:10.314Z,76.84
2023-10-04T01:08:36.821Z,76.86
2023-10-04T01:11:03.739Z,76.78
2023-10-04T01:13:30.438Z,76.86
2023-10-04T01:15:58.401Z,76.91
2023-10-04T01:18:25.225Z,76.78
2023-10-04T01:20:52.967Z,76.10
2023-10-04T01:23:19.955Z,75.66
2023-10-04T01:25:47.910Z,76.92
2023-10-04T01:28:28.062Z,75.95
2023-10-04T01:30:56.774Z,76.09
2023-10-04T01:33:23.823Z,76.25
2023-10-04T01:35:55.255Z,76.08
2023-10-04T01:38:26.269Z,75.77
2023-10-04T01:40:54.480Z,75.83
2023-10-04T01:43:21.628Z,76.13
2023-10-04T01:45:50.095Z,75.75
2023-10-04T01:48:17.158Z,75.60
2023-10-04T01:50:44.663Z,76.00
2023-10-04T01:53:12.226Z,76.28
2023-10-04T01:55:38.793Z,76.33
2023-10-04T01:58:05.837Z,75.37
2023-10-04T02:00:35.128Z,75.95
2023-10-04T02:03:02.833Z,76.13
2023-10-04T02:05:32.973Z,76.57
2023-10-04T02:08:00.274Z,75.71
2023-10-04T02:10:27.484Z,76.05
2023-10-04T02:12:56.904Z,76.06
2023-10-04T02:15:24.019Z,76.34
2023-10-04T02:17:54.589Z,76.42
2023-10-04T02:20:24.671Z,75.84
2023-10-04T02:22:51.800Z,75.63
2023-10-04T02:25:20.677Z,75.66
2023-10-04T02:27:50.410Z,76.09
2023-10-04T02:30:23.295Z,75.76
2023-10-04T02:32:54.621Z,76.01
2023-10-04T02:35:28.177Z,75.84
2023-10-04T02:38:02.007Z,76.14
2023-10-04T02:40:29.451Z,76.11
2023-10-04T02:42:56.709Z,76.35
2023-10-04T02:45:25.987Z,77.29
2023-10-04T02:47:54.151Z,77.43
2023-10-04T02:50:22.524Z,76.79
2023-10-04T02:52:51.409Z,76.23
2023-10-04T02:55:19.393Z,77.15
2023-10-04T02:57:50.639Z,76.69
2023-10-04T03:00:20.479Z,77.28
2023-10-04T03:02:49.449Z,76.96
2023-10-04T03:05:19.885Z,77.09
2023-10-04T03:07:48.470Z,77.44
2023-10-04T03:10:24.700Z,77.84
2023-10-04T03:13:02.098Z,77.69
2023-10-04T03:15:29.436Z,77.53
2023-10-04T03:17:59.077Z,77.49
2023-10-04T03:20:29.371Z,77.00
2023-10-04T03:22:56.891Z,77.34
2023-10-04T03:25:28.355Z,77.02
2023-10-04T03:27:55.280Z,77.19
2023-10-04T03:30:21.981Z,76.69
2023-10-04T03:32:53.936Z,77.55
2023-10-04T03:35:23.782Z,76.95
2023-10-04T03:37:59.948Z,76.61
2023-10-04T03:40:35.869Z,77.51
2023-10-04T03:43:09.190Z,77.25
2023-10-04T03:45:36.963Z,77.72
2023-10-04T03:48:06.578Z,77.20
2023-10-04T03:50:33.186Z,78.30
2023-10-04T03:52:59.685Z,78.00
2023-10-04T03:55:29.039Z,78.16
2023-10-04T03:57:56.098Z,78.36
2023-10-04T04:00:24.667Z,78.33
2023-10-04T04:02:52.098Z,78.24
2023-10-04T04:05:22.728Z,78.37
2023-10-04T04:07:49.740Z,78.37
2023-10-04T04:10:19.942Z,78.50
2023-10-04T04:12:47.925Z,78.38
2023-10-04T04:15:22.002Z,78.28
2023-10-04T04:17:49.614Z,78.19
2023-10-04T04:20:17.039Z,78.59
2023-10-04T04:22:47.279Z,78.46
2023-10-04T04:25:16.694Z,77.67
2023-10-04T04:27:47.021Z,78.64
2023-10-04T04:30:20.641Z,78.54
2023-10-04T04:32:53.797Z,78.54
2023-10-04T04:35:40.546Z,78.46
2023-10-04T04:38:11.852Z,78.55
2023-10-04T04:40:39.886Z,78.29
2023-10-04T04:43:24.267Z,78.54
2023-10-04T04:45:52.943Z,78.18
2023-10-04T04:48:24.924Z,77.95
2023-10-04T04:51:03.800Z,77.76
2023-10-04T04:53:30.461Z,81.46
2023-10-04T04:55:57.060Z,81.09
2023-10-04T04:58:24.279Z,77.21
2023-10-04T05:00:56.341Z,73.70
2023-10-04T05:03:25.228Z,70.08
2023-10-04T05:05:51.828Z,67.98
2023-10-04T05:08:18.908Z,67.27
2023-10-04T05:10:47.070Z,65.02
2023-10-04T05:13:14.693Z,63.06
2023-10-04T05:15:43.812Z,62.62
2023-10-04T05:18:17.204Z,61.83
2023-10-04T05:20:45.031Z,60.43
2023-10-04T05:23:11.652Z,60.67
2023-10-04T05:25:38.698Z,62.43
2023-10-04T05:28:15.197Z,63.01
2023-10-04T05:30:45.950Z,63.78
2023-10-04T05:33:16.829Z,63.46
2023-10-04T05:35:44.855Z,63.50
2023-10-04T05:38:13.325Z,64.78
2023-10-04T05:40:46.440Z,65.36
2023-10-04T05:43:13.220Z,66.03
2023-10-04T05:45:43.329Z,68.01
2023-10-04T05:48:11.554Z,69.99
2023-10-04T05:50:39.766Z,69.05
2023-10-04T05:53:07.702Z,68.17
2023-10-04T05:55:36.109Z,66.44
2023-10-04T05:58:11.113Z,68.60
2023-10-04T06:00:42.022Z,67.48
2023-10-04T06:03:13.181Z,69.02
2023-10-04T06:05:41.632Z,70.84
2023-10-04T06:08:19.310Z,71.93
2023-10-04T06:10:48.189Z,75.38
2023-10-04T06:13:18.296Z,73.70
2023-10-04T06:15:47.400Z,73.47
2023-10-04T06:18:14.775Z,71.29
2023-10-04T06:20:42.254Z,71.84
2023-10-04T06:23:13.408Z,74.16
2023-10-04T06:25:53.634Z,74.27
2023-10-04T06:28:21.421Z,74.70
2023-10-04T06:30:50.000Z,73.49
2023-10-04T06:33:17.601Z,73.54
2023-10-04T06:35:44.905Z,74.00
2023-10-04T06:38:14.011Z,73.86
2023-10-04T06:40:41.170Z,72.80
2023-10-04T06:43:12.040Z,73.01
2023-10-04T06:45:41.043Z,73.60
2023-10-04T06:48:09.189Z,72.60
2023-10-04T06:50:39.700Z,72.38
2023-10-04T06:53:07.462Z,72.39
2023-10-04T06:55:35.289Z,71.89
2023-10-04T06:58:02.120Z,73.72
2023-10-04T07:00:37.606Z,71.34
2023-10-04T07:03:05.412Z,70.50
2023-10-04T07:05:40.804Z,70.22
2023-10-04T07:08:10.165Z,70.95
2023-10-04T07:10:37.784Z,68.64
2023-10-04T07:13:06.344Z,66.92
2023-10-04T07:15:37.035Z,66.97
2023-10-04T07:18:08.309Z,65.63
2023-10-04T07:20:35.730Z,64.66
2023-10-04T07:23:09.023Z,63.22
2023-10-04T07:25:40.777Z,62.87
2023-10-04T07:28:11.108Z,62.47
2023-10-04T07:30:39.587Z,63.37
2023-10-04T07:33:06.536Z,62.35
2023-10-04T07:35:34.247Z,61.66
2023-10-04T07:38:02.209Z,61.14
2023-10-04T07:40:32.214Z,61.95
2023-10-04T07:43:00.586Z,62.84
2023-10-04T07:45:29.545Z,62.24
2023-10-04T07:47:57.469Z,63.08
2023-10-04T07:50:24.849Z,63.74
2023-10-04T07:52:53.701Z,62.38
2023-10-04T07:55:20.360Z,63.48
2023-10-04T07:57:47.966Z,63.42
2023-10-04T08:00:16.506Z,62.88
2023-10-04T08:02:53.712Z,63.88
2023-10-04T08:05:21.910Z,61.87
2023-10-04T08:07:49.823Z,63.09
2023-10-04T08:10:24.350Z,63.72
2023-10-04T08:12:56.046Z,62.80
2023-10-04T08:15:27.044Z,61.92
2023-10-04T08:17:55.459Z,60.81
2023-10-04T08:20:24.338Z,59.59
2023-10-04T08:22:51.655Z,62.58
2023-10-04T08:25:22.526Z,62.27
2023-10-04T08:27:49.427Z,62.40
2023-10-04T08:30:18.002Z,61.93
2023-10-04T08:35:37.191Z,61.15
2023-10-04T08:38:06.343Z,63.11
2023-10-04T08:40:39.391Z,63.22
2023-10-04T08:43:07.396Z,63.43
2023-10-04T08:45:35.746Z,64.17
2023-10-04T08:48:03.736Z,64.32
2023-10-04T08:50:39.561Z,64.84
2023-10-04T08:53:37.544Z,63.50
2023-10-04T08:56:10.005Z,64.18
2023-10-04T08:58:37.899Z,64.46
2023-10-04T09:01:08.168Z,66.03
2023-10-04T09:03:37.131Z,64.52
2023-10-04T09:06:06.572Z,65.42
2023-10-04T09:08:33.474Z,65.63
2023-10-04T09:11:00.071Z,63.63
2023-10-04T09:13:26.875Z,63.43
2023-10-04T09:15:53.606Z,64.12
2023-10-04T09:18:27.946Z,64.32
2023-10-04T09:20:54.795Z,64.00
2023-10-04T09:23:23.824Z,64.85
2023-10-04T09:25:55.220Z,65.92
2023-10-04T09:28:37.494Z,64.45
2023-10-04T09:31:20.065Z,62.98
2023-10-04T09:33:46.729Z,62.61
2023-10-04T09:36:14.855Z,64.92
2023-10-04T09:38:42.419Z,63.69
2023-10-04T09:41:11.501Z,62.92
2023-10-04T09:43:41.089Z,61.82
2023-10-04T09:46:11.960Z,60.75
2023-10-04T09:48:42.318Z,60.52
2023-10-04T09:51:10.620Z,60.34
2023-10-04T09:53:41.650Z,60.95
2023-10-04T09:56:13.564Z,60.25
2023-10-04T09:58:50.910Z,59.82
2023-10-04T10:01:21.489Z,57.81
2023-10-04T10:03:56.877Z,58.22
2023-10-04T10:06:27.907Z,59.97
2023-10-04T10:08:59.979Z,59.31
2023-10-04T10:11:28.514Z,60.08
2023-10-04T10:13:56.638Z,61.91
2023-10-04T10:16:24.731Z,59.70
2023-10-04T10:18:53.571Z,58.94
2023-10-04T10:21:20.701Z,59.23
2023-10-04T10:24:15.445Z,59.52
2023-10-04T10:26:42.247Z,58.33
2023-10-04T10:29:21.647Z,58.31
2023-10-04T10:31:55.175Z,60.54
2023-10-04T10:34:21.898Z,58.29
2023-10-04T10:37:08.238Z,57.24
2023-10-04T10:39:44.322Z,57.46
2023-10-04T10:42:12.871Z,57.55
2023-10-04T10:44:40.749Z,58.02
2023-10-04T10:47:16.077Z,58.84
2023-10-04T10:49:49.453Z,56.19
2023-10-04T10:52:35.782Z,56.76
2023-10-04T10:55:07.691Z,54.76
2023-10-04T10:57:37.729Z,55.19
2023-10-04T11:00:16.381Z,56.07
2023-10-04T11:02:43.312Z,54.05
2023-10-04T11:05:13.178Z,52.19
2023-10-04T11:07:40.155Z,53.64
2023-10-04T11:10:07.818Z,54.20
2023-10-04T11:12:38.873Z,54.90
2023-10-04T11:15:09.534Z,53.78
2023-10-04T11:17:38.972Z,54.29
2023-10-04T11:20:13.264Z,54.75
2023-10-04T11:22:41.173Z,54.23
2023-10-04T11:25:10.070Z,55.76
2023-10-04T11:27:38.479Z,53.88
2023-10-04T11:30:06.692Z,52.76
2023-10-04T11:32:33.487Z,52.87
2023-10-04T11:35:00.639Z,52.92
2023-10-04T11:37:31.054Z,53.72
2023-10-04T11:39:59.060Z,53.32
2023-10-04T11:42:26.358Z,51.63
2023-10-04T11:44:53.141Z,52.11
2023-10-04T11:47:32.792Z,54.01
2023-10-04T11:50:01.802Z,52.55
2023-10-04T11:52:32.990Z,52.25
2023-10-04T11:55:00.448Z,52.55
2023-10-04T11:57:41.384Z,50.96
2023-10-04T12:00:19.137Z,51.72
2023-10-04T12:02:45.817Z,49.00
2023-10-04T12:05:15.432Z,50.33
2023-10-04T12:07:42.126Z,50.83
2023-10-04T12:10:10.988Z,48.15
2023-10-04T12:12:38.357Z,48.47
2023-10-04T12:15:09.258Z,49.19
2023-10-04T12:17:37.510Z,49.53
2023-10-04T12:20:08.432Z,50.18
2023-10-04T12:22:35.958Z,51.00
2023-10-04T12:25:02.698Z,51.87
2023-10-04T12:27:29.314Z,49.56
2023-10-04T12:29:57.996Z,50.28
2023-10-04T12:32:25.059Z,49.17
2023-10-04T12:34:51.607Z,50.09
2023-10-04T12:37:18.212Z,49.44
2023-10-04T12:39:44.917Z,49.98
2023-10-04T12:42:11.530Z,50.01
2023-10-04T12:44:43.147Z,50.19
2023-10-04T12:47:10.030Z,49.89
2023-10-04T12:49:38.274Z,50.93
2023-10-04T12:52:05.484Z,49.88
2023-10-04T12:54:32.596Z,47.81
2023-10-04T12:56:59.227Z,47.61
2023-10-04T12:59:25.836Z,48.45
2023-10-04T13:01:54.661Z,46.07
2023-10-04T13:04:21.477Z,47.06
2023-10-04T13:06:48.236Z,47.50
2023-10-04T13:09:16.809Z,48.52
2023-10-04T13:11:45.588Z,48.43
2023-10-04T13:14:12.403Z,46.91
2023-10-04T13:16:41.396Z,48.23
2023-10-04T13:19:08.268Z,47.99
2023-10-04T13:21:34.958Z,47.92
2023-10-04T13:24:01.455Z,49.00
2023-10-04T13:26:28.003Z,48.02
2023-10-04T13:28:54.500Z,47.13
2023-10-04T13:31:21.032Z,46.83
2023-10-04T13:33:47.714Z,46.12
2023-10-04T13:36:15.365Z,44.23
2023-10-04T13:38:41.918Z,44.68
2023-10-04T13:41:13.224Z,44.25
2023-10-04T13:43:40.079Z,45.51
2023-10-04T13:46:07.378Z,44.87
2023-10-04T13:48:34.196Z,47.38
2023-10-04T13:51:00.928Z,48.31
2023-10-04T13:53:29.896Z,46.25
2023-10-04T13:55:56.529Z,47.75
2023-10-04T13:58:24.878Z,47.52
2023-10-04T14:00:57.916Z,46.95
2023-10-04T14:03:24.960Z,47.05
2023-10-04T14:05:54.812Z,44.74
2023-10-04T14:08:21.794Z,45.10
2023-10-04T14:10:48.894Z,45.51
2023-10-04T14:13:16.401Z,45.28
2023-10-04T14:15:43.445Z,45.26
2023-10-04T14:18:12.103Z,46.26
2023-10-04T14:20:38.793Z,45.75
2023-10-04T14:23:11.572Z,45.77
2023-10-04T14:25:39.675Z,41.14
2023-10-04T14:28:07.505Z,41.73
2023-10-04T14:30:34.163Z,41.06
2023-10-04T14:33:00.907Z,43.06
2023-10-04T14:35:28.762Z,40.28
2023-10-04T14:37:56.801Z,39.30
2023-10-04T14:40:26.373Z,37.80
2023-10-04T14:42:55.930Z,37.66
2023-10-04T14:45:24.006Z,38.64
2023-10-04T14:47:50.964Z,38.68
2023-10-04T14:50:19.058Z,40.16
2023-10-04T14:52:46.817Z,39.27
2023-10-04T14:55:21.293Z,38.40
2023-10-04T14:57:48.162Z,37.11
2023-10-04T15:00:18.254Z,38.41
2023-10-04T15:02:48.221Z,36.05
2023-10-04T15:05:15.106Z,35.60
2023-10-04T15:07:42.014Z,35.28
2023-10-04T15:10:18.237Z,35.04
2023-10-04T15:12:46.543Z,34.35
2023-10-04T15:15:13.202Z,35.07
2023-10-04T15:17:40.153Z,35.69
2023-10-04T15:20:08.005Z,36.06
2023-10-04T15:22:40.275Z,38.55
2023-10-04T15:25:12.961Z,38.18
2023-10-04T15:27:46.515Z,38.42
2023-10-04T15:30:23.767Z,37.36
2023-10-04T15:32:54.533Z,37.35
2023-10-04T15:35:28.765Z,38.04
2023-10-04T15:38:01.202Z,38.86
2023-10-04T15:40:31.908Z,39.24
2023-10-04T15:42:59.859Z,39.69
2023-10-04T15:45:26.604Z,41.34
2023-10-04T15:47:53.609Z,42.60
2023-10-04T15:50:22.308Z,44.02
2023-10-04T15:52:48.865Z,44.37
2023-10-04T15:55:16.304Z,45.04
2023-10-04T15:57:47.307Z,43.33
2023-10-04T16:00:34.307Z,41.43
2023-10-04T16:03:02.322Z,42.68
2023-10-04T16:05:29.849Z,42.79
2023-10-04T16:07:56.773Z,44.38
2023-10-04T16:10:26.801Z,45.62
2023-10-04T16:12:57.452Z,46.01
2023-10-04T16:15:24.615Z,47.13
2023-10-04T16:17:51.525Z,44.89
2023-10-04T16:20:18.696Z,47.06
2023-10-04T16:22:48.682Z,48.60
2023-10-04T16:25:15.275Z,48.45
2023-10-04T16:27:45.813Z,50.54
2023-10-04T16:30:15.747Z,48.01
2023-10-04T16:32:47.649Z,49.54
2023-10-04T16:35:16.636Z,48.86
2023-10-04T16:37:44.406Z,49.26
2023-10-04T16:40:14.274Z,51.54
2023-10-04T16:42:45.176Z,51.65
2023-10-04T16:45:13.862Z,53.42
2023-10-04T16:47:42.783Z,54.25
2023-10-04T16:50:09.734Z,55.04
2023-10-04T16:52:36.273Z,55.21
2023-10-04T16:55:06.560Z,55.90
2023-10-04T16:57:33.395Z,56.65
2023-10-04T16:59:59.936Z,58.01
2023-10-04T17:02:26.488Z,58.42
2023-10-04T17:04:53.060Z,59.27
2023-10-04T17:07:19.714Z,59.53
2023-10-04T17:09:46.601Z,59.86
2023-10-04T17:12:13.168Z,60.92
2023-10-04T17:14:40.658Z,61.57
2023-10-04T17:17:08.839Z,61.54
2023-10-04T17:19:35.898Z,62.42
2023-10-04T17:22:02.990Z,62.61
2023-10-04T17:24:30.081Z,63.13
2023-10-04T17:26:56.702Z,63.44
2023-10-04T17:29:23.237Z,64.29
2023-10-04T17:31:49.851Z,63.41
2023-10-04T17:34:16.473Z,64.20
2023-10-04T17:36:43.929Z,63.98
2023-10-04T17:39:15.100Z,63.65
2023-10-04T17:41:42.130Z,63.66
2023-10-04T17:44:08.964Z,63.74
2023-10-04T17:46:36.386Z,63.74
2023-10-04T17:49:03.256Z,64.33
2023-10-04T17:51:30.576Z,64.76
2023-10-04T17:53:59.424Z,65.02
2023-10-04T17:56:26.550Z,64.55
2023-10-04T17:58:53.077Z,64.73
2023-10-04T18:01:19.805Z,65.45
2023-10-04T18:03:47.486Z,65.90
2023-10-04T18:06:15.873Z,65.73
2023-10-04T18:08:42.429Z,65.86
2023-10-04T18:11:09.152Z,66.21
2023-10-04T18:13:36.142Z,66.07
2023-10-04T18:16:03.659Z,66.72
2023-10-04T18:18:30.694Z,67.13
2023-10-04T18:20:58.191Z,67.60
2023-10-04T18:23:25.417Z,67.06
2023-10-04T18:25:52.010Z,67.74
2023-10-04T18:28:18.515Z,67.89
2023-10-04T18:30:45.194Z,68.16
2023-10-04T18:33:11.987Z,68.41
2023-10-04T18:35:38.661Z,68.64
2023-10-04T18:38:06.459Z,68.52
2023-10-04T18:40:33.039Z,68.84
2023-10-04T18:42:59.637Z,68.79
2023-10-04T18:45:26.369Z,69.55
2023-10-04T18:47:53.005Z,69.29
2023-10-04T18:50:22.597Z,69.61
2023-10-04T18:52:49.789Z,69.53
2023-10-04T18:55:17.634Z,69.48
2023-10-04T18:57:45.791Z,69.75
2023-10-04T19:00:16.734Z,69.79
2023-10-04T19:02:44.184Z,70.11
2023-10-04T19:05:12.358Z,70.59
2023-10-04T19:07:40.532Z,70.64
2023-10-04T19:10:09.703Z,70.87
2023-10-04T19:12:37.117Z,70.86
2023-10-04T19:15:05.634Z,71.15
2023-10-04T19:17:32.485Z,70.83
2023-10-04T19:19:59.266Z,71.33
2023-10-04T19:22:25.810Z,71.66
2023-10-04T19:24:52.406Z,71.75
2023-10-04T19:27:19.125Z,71.99
2023-10-04T19:29:45.787Z,72.32
2023-10-04T19:32:12.903Z,72.44
2023-10-04T19:34:39.670Z,72.55
2023-10-04T19:37:06.269Z,72.08
2023-10-04T19:39:32.884Z,72.54
2023-10-04T19:42:00.366Z,73.39
2023-10-04T19:44:26.966Z,72.99
2023-10-04T19:46:53.746Z,73.22
2023-10-04T19:49:20.388Z,73.29
2023-10-04T19:51:47.480Z,73.31
2023-10-04T19:54:14.099Z,74.24
2023-10-04T19:56:40.649Z,74.30
2023-10-04T19:59:07.150Z,74.25
2023-10-04T20:01:33.838Z,74.00
2023-10-04T20:04:03.519Z,74.06
2023-10-04T20:06:31.722Z,74.01
2023-10-04T20:08:58.351Z,74.14
2023-10-04T20:11:24.915Z,73.93
2023-10-04T20:13:54.114Z,73.98
2023-10-04T20:16:23.806Z,74.58
2023-10-04T20:18:50.784Z,74.89
2023-10-04T20:21:19.804Z,75.31
2023-10-04T20:23:46.624Z,75.15
2023-10-04T20:26:13.294Z,75.73
2023-10-04T20:28:39.974Z,75.80
2023-10-04T20:31:06.689Z,76.09
2023-10-04T20:33:33.814Z,76.68
2023-10-04T20:36:02.252Z,76.02
2023-10-04T20:38:30.377Z,76.24
2023-10-04T20:40:57.705Z,76.57
2023-10-04T20:43:25.413Z,77.01
2023-10-04T20:45:52.518Z,77.06
2023-10-04T20:48:19.102Z,77.88
2023-10-04T20:50:46.108Z,77.61
2023-10-04T20:53:15.048Z,77.40
2023-10-04T20:55:41.944Z,77.53
2023-10-04T20:58:10.128Z,77.75
2023-10-04T21:00:37.771Z,77.84
2023-10-04T21:03:06.153Z,78.51
2023-10-04T21:05:33.116Z,78.37
2023-10-04T21:07:59.665Z,78.05
2023-10-04T21:10:26.351Z,78.43
2023-10-04T21:12:52.910Z,77.99
2023-10-04T21:15:19.560Z,78.82
2023-10-04T21:17:46.295Z,78.90
2023-10-04T21:20:18.707Z,79.37
2023-10-04T21:22:47.291Z,78.90
2023-10-04T21:25:14.951Z,78.49
2023-10-04T21:27:41.932Z,78.99
2023-10-04T21:30:10.336Z,78.29
2023-10-04T21:32:40.999Z,78.56
2023-10-04T21:35:21.575Z,79.07
2023-10-04T21:37:52.913Z,78.56
2023-10-04T21:40:21.192Z,79.29
2023-10-04T21:42:48.781Z,78.80
2023-10-04T21:45:22.006Z,78.96
2023-10-04T21:47:50.007Z,79.33
2023-10-04T21:50:17.500Z,79.28
2023-10-04T21:52:44.116Z,79.53
2023-10-04T21:55:14.438Z,79.97
2023-10-04T21:57:42.361Z,80.47
2023-10-04T22:00:15.628Z,80.66
2023-10-04T22:02:42.264Z,79.83
2023-10-04T22:05:11.007Z,80.73
2023-10-04T22:07:38.271Z,80.83
2023-10-04T22:10:07.134Z,79.97
2023-10-04T22:12:33.683Z,80.25
2023-10-04T22:15:00.868Z,80.55
2023-10-04T22:17:27.352Z,80.48
2023-10-04T22:19:54.032Z,80.81
2023-10-04T22:22:21.246Z,80.33
2023-10-04T22:25:01.201Z,80.56
2023-10-04T22:27:30.696Z,80.74
2023-10-04T22:29:58.545Z,81.05
2023-10-04T22:32:26.864Z,81.08
2023-10-04T22:34:53.633Z,80.74
2023-10-04T22:37:20.429Z,80.48
2023-10-04T22:39:47.078Z,81.02
2023-10-04T22:42:13.820Z,81.50
2023-10-04T22:44:42.043Z,81.49
2023-10-04T22:47:10.917Z,80.92
2023-10-04T22:49:38.364Z,80.90
2023-10-04T22:52:05.314Z,81.73
2023-10-04T22:54:31.991Z,81.77
2023-10-04T22:56:59.504Z,81.68
2023-10-04T22:59:27.094Z,81.24
2023-10-04T23:01:56.013Z,81.42
2023-10-04T23:04:23.008Z,81.31
2023-10-04T23:06:50.518Z,81.88
2023-10-04T23:09:18.335Z,81.84
2023-10-04T23:11:46.905Z,81.45
2023-10-04T23:14:14.174Z,81.42
2023-10-04T23:16:44.465Z,81.27
2023-10-04T23:19:17.673Z,81.94
2023-10-04T23:21:44.657Z,82.20
2023-10-04T23:24:15.581Z,82.23
2023-10-04T23:26:42.940Z,82.11
2023-10-04T23:29:09.895Z,81.15
2023-10-04T23:31:39.558Z,81.55
2023-10-04T23:34:09.728Z,82.09
2023-10-04T23:36:36.709Z,82.06
2023-10-04T23:39:08.146Z,81.83
2023-10-04T23:41:35.794Z,81.54
2023-10-04T23:44:04.812Z,81.88
2023-10-04T23:46:37.753Z,81.43
2023-10-04T23:49:11.729Z,81.98
2023-10-04T23:51:40.380Z,81.86
2023-10-04T23:54:14.117Z,81.97
2023-10-04T23:56:54.310Z,81.52
2023-10-04T23:59:27.522Z,81.96
